Terminal Aerodrome Forecast
Issued by NWS

Home | Current Version | Previous Version | Graphics & Text | Print | Product List | Glossary On
Versions: 1 2 3 4 5 6 7 8 9 10 11 12 13 14 15 16 17 18
000
FTUS43 KBIS 201700
TAFDIK
TAF
KDIK 201720Z 2018/2118 25010KT P6SM FEW100
     FM210100 21007KT P6SM SCT250
     FM211000 19008KT P6SM SCT120 SCT200
     FM211500 20009KT P6SM SCT090 BKN110=

USA.gov is the U.S. government's official web portal to all federal, state and local government web resources and services.